createdAt,value
2023-03-05T00:01:32.943Z,50.54
2023-03-05T00:04:03.087Z,49.40
2023-03-05T00:06:33.018Z,48.77
2023-03-05T00:09:01.532Z,50.10
2023-03-05T00:11:31.913Z,50.65
2023-03-05T00:14:01.986Z,51.46
2023-03-05T00:16:30.912Z,52.01
2023-03-05T00:18:59.840Z,52.48
2023-03-05T00:21:40.116Z,52.67
2023-03-05T00:24:14.336Z,51.83
2023-03-05T00:26:43.254Z,52.39
2023-03-05T00:29:15.526Z,51.92
2023-03-05T00:31:46.521Z,53.18
2023-03-05T00:34:16.711Z,52.81
2023-03-05T00:36:48.188Z,52.09
2023-03-05T00:39:17.636Z,51.51
2023-03-05T00:41:46.990Z,50.78
2023-03-05T00:44:14.975Z,51.17
2023-03-05T00:46:43.189Z,52.41
2023-03-05T00:49:11.414Z,51.78
2023-03-05T00:51:41.218Z,50.94
2023-03-05T00:54:10.119Z,52.10
2023-03-05T00:56:38.282Z,52.13
2023-03-05T00:59:08.916Z,53.51
2023-03-05T01:01:37.034Z,53.88
2023-03-05T01:04:05.359Z,55.04
2023-03-05T01:06:33.624Z,54.80
2023-03-05T01:09:02.514Z,55.64
2023-03-05T01:11:32.155Z,54.82
2023-03-05T01:14:00.489Z,55.23
2023-03-05T01:16:28.859Z,54.97
2023-03-05T01:18:57.063Z,55.64
2023-03-05T01:21:25.348Z,54.41
2023-03-05T01:23:54.012Z,55.50
2023-03-05T01:26:22.185Z,55.62
2023-03-05T01:28:50.177Z,54.37
2023-03-05T01:31:18.325Z,53.38
2023-03-05T01:33:47.221Z,53.12
2023-03-05T01:36:17.061Z,52.45
2023-03-05T01:38:47.750Z,52.56
2023-03-05T01:41:16.432Z,52.98
2023-03-05T01:43:46.166Z,55.78
2023-03-05T01:46:25.476Z,55.93
2023-03-05T01:49:01.397Z,54.64
2023-03-05T01:51:35.433Z,53.78
2023-03-05T01:54:06.479Z,53.68
2023-03-05T01:56:35.263Z,53.64
2023-03-05T01:59:04.423Z,53.99
2023-03-05T02:01:38.918Z,53.38
2023-03-05T02:04:10.400Z,53.40
2023-03-05T02:06:41.311Z,53.89
2023-03-05T02:09:10.317Z,53.54
2023-03-05T02:11:39.565Z,52.70
2023-03-05T02:14:10.189Z,51.95
2023-03-05T02:16:39.239Z,51.47
2023-03-05T02:19:10.526Z,50.70
2023-03-05T02:21:45.346Z,50.28
2023-03-05T02:24:20.047Z,50.19
2023-03-05T02:26:48.147Z,49.51
2023-03-05T02:29:20.191Z,49.45
2023-03-05T02:31:48.979Z,49.45
2023-03-05T02:34:17.168Z,49.76
2023-03-05T02:36:45.343Z,50.17
2023-03-05T02:39:13.752Z,50.16
2023-03-05T02:41:42.091Z,50.36
2023-03-05T02:44:10.536Z,50.83
2023-03-05T02:46:38.751Z,50.55
2023-03-05T02:49:06.951Z,50.60
2023-03-05T02:51:35.157Z,49.30
2023-03-05T02:54:03.894Z,50.10
2023-03-05T02:56:32.529Z,50.78
2023-03-05T02:59:02.054Z,51.23
2023-03-05T03:01:30.404Z,51.57
2023-03-05T03:03:59.554Z,52.37
2023-03-05T03:06:27.635Z,52.66
2023-03-05T03:08:55.696Z,52.13
2023-03-05T03:11:24.228Z,52.33
2023-03-05T03:13:52.340Z,52.50
2023-03-05T03:16:20.767Z,51.43
2023-03-05T03:18:49.135Z,51.68
2023-03-05T03:21:20.309Z,51.33
2023-03-05T03:23:48.459Z,50.93
2023-03-05T03:26:17.500Z,50.78
2023-03-05T03:28:46.203Z,51.38
2023-03-05T03:31:14.595Z,51.79
2023-03-05T03:33:42.843Z,52.64
2023-03-05T03:36:11.781Z,53.15
2023-03-05T03:38:40.063Z,53.17
2023-03-05T03:41:09.542Z,52.88
2023-03-05T03:43:37.885Z,53.45
2023-03-05T03:46:07.998Z,52.77
2023-03-05T03:48:36.793Z,51.98
2023-03-05T03:51:07.568Z,51.70
2023-03-05T03:53:35.694Z,51.88
2023-03-05T03:56:04.334Z,52.10
2023-03-05T03:58:32.769Z,52.42
2023-03-05T04:01:01.232Z,52.27
2023-03-05T04:03:29.396Z,51.44
2023-03-05T04:05:57.430Z,51.43
2023-03-05T04:08:25.548Z,50.96
2023-03-05T04:10:53.770Z,51.90
2023-03-05T04:13:21.785Z,52.02
2023-03-05T04:15:50.506Z,52.37
2023-03-05T04:18:18.787Z,52.67
2023-03-05T04:20:47.061Z,53.00
2023-03-05T04:23:15.607Z,52.67
2023-03-05T04:25:44.052Z,53.33
2023-03-05T04:28:12.555Z,54.27
2023-03-05T04:30:40.671Z,54.21
2023-03-05T04:33:09.013Z,54.55
2023-03-05T04:35:37.246Z,54.76
2023-03-05T04:38:05.573Z,55.05
2023-03-05T04:40:34.861Z,55.56
2023-03-05T04:43:03.900Z,55.19
2023-03-05T04:45:32.298Z,55.31
2023-03-05T04:48:00.618Z,55.28
2023-03-05T04:50:28.662Z,54.55
2023-03-05T04:52:57.880Z,53.88
2023-03-05T04:55:26.792Z,54.10
2023-03-05T04:57:54.934Z,53.73
2023-03-05T05:00:23.422Z,53.68
2023-03-05T05:02:52.305Z,53.88
2023-03-05T05:05:23.241Z,53.91
2023-03-05T05:07:55.321Z,53.96
2023-03-05T05:10:25.248Z,52.28
2023-03-05T05:12:53.686Z,51.37
2023-03-05T05:15:22.079Z,50.93
2023-03-05T05:17:50.574Z,49.60
2023-03-05T05:20:18.828Z,49.08
2023-03-05T05:22:47.308Z,48.20
2023-03-05T05:25:15.482Z,46.69
2023-03-05T05:27:43.705Z,45.22
2023-03-05T05:30:12.445Z,44.75
2023-03-05T05:32:40.659Z,44.31
2023-03-05T05:35:10.671Z,45.37
2023-03-05T05:37:38.922Z,43.42
2023-03-05T05:40:08.526Z,43.32
2023-03-05T05:42:37.200Z,43.16
2023-03-05T05:45:06.163Z,41.46
2023-03-05T05:47:34.481Z,39.54
2023-03-05T05:50:03.872Z,38.07
2023-03-05T05:52:31.938Z,36.84
2023-03-05T05:55:00.129Z,36.14
2023-03-05T05:57:28.188Z,34.79
2023-03-05T05:59:56.782Z,34.78
2023-03-05T06:02:25.047Z,35.92
2023-03-05T06:04:53.385Z,37.32
2023-03-05T06:07:21.467Z,37.82
2023-03-05T06:09:49.590Z,38.14
2023-03-05T06:12:17.727Z,38.73
2023-03-05T06:14:45.811Z,39.14
2023-03-05T06:17:21.923Z,39.78
2023-03-05T06:19:55.490Z,39.90
2023-03-05T06:22:23.633Z,39.16
2023-03-05T06:24:51.704Z,38.03
2023-03-05T06:27:19.875Z,37.66
2023-03-05T06:29:47.935Z,37.71
2023-03-05T06:32:16.585Z,38.35
2023-03-05T06:34:44.905Z,38.68
2023-03-05T06:37:13.146Z,39.42
2023-03-05T06:39:41.451Z,40.05
2023-03-05T06:42:10.275Z,40.06
2023-03-05T06:44:40.470Z,40.67
2023-03-05T06:47:10.630Z,40.68
2023-03-05T06:49:39.172Z,40.97
2023-03-05T06:52:10.167Z,41.07
2023-03-05T06:54:38.475Z,40.83
2023-03-05T06:57:06.547Z,40.95
2023-03-05T06:59:34.626Z,41.22
2023-03-05T07:02:02.852Z,41.67
2023-03-05T07:04:30.960Z,42.23
2023-03-05T07:07:00.678Z,43.60
2023-03-05T07:09:29.049Z,43.54
2023-03-05T07:11:57.243Z,44.49
2023-03-05T07:14:25.233Z,44.34
2023-03-05T07:16:53.270Z,44.28
2023-03-05T07:19:21.352Z,44.32
2023-03-05T07:21:49.399Z,44.80
2023-03-05T07:24:17.398Z,44.42
2023-03-05T07:26:46.923Z,44.19
2023-03-05T07:29:16.504Z,44.29
2023-03-05T07:31:44.648Z,44.18
2023-03-05T07:34:12.923Z,44.09
2023-03-05T07:36:42.400Z,43.56
2023-03-05T07:39:12.016Z,43.84
2023-03-05T07:41:40.033Z,43.92
2023-03-05T07:44:08.075Z,43.43
2023-03-05T07:46:36.594Z,42.67
2023-03-05T07:49:04.996Z,40.04
2023-03-05T07:51:33.420Z,37.71
2023-03-05T07:54:02.258Z,35.17
2023-03-05T07:56:35.803Z,34.46
2023-03-05T07:59:07.326Z,34.51
2023-03-05T08:01:36.297Z,34.45
2023-03-05T08:04:06.058Z,33.49
2023-03-05T08:06:34.179Z,32.49
2023-03-05T08:09:02.309Z,31.96
2023-03-05T08:11:30.468Z,31.39
2023-03-05T08:13:59.743Z,31.21
2023-03-05T08:16:28.143Z,30.58
2023-03-05T08:18:58.189Z,30.41
2023-03-05T08:21:33.878Z,30.06
2023-03-05T08:24:04.371Z,29.58
2023-03-05T08:26:34.650Z,28.19
2023-03-05T08:29:03.552Z,28.13
2023-03-05T08:31:32.895Z,27.83
2023-03-05T08:34:02.360Z,26.85
2023-03-05T08:36:30.940Z,26.24
2023-03-05T08:38:59.960Z,26.28
2023-03-05T08:41:28.472Z,25.87
2023-03-05T08:43:56.716Z,26.18
2023-03-05T08:46:25.509Z,26.47
2023-03-05T08:48:53.741Z,25.87
2023-03-05T08:51:27.780Z,25.40
2023-03-05T08:53:58.213Z,24.84
2023-03-05T08:56:28.516Z,24.67
2023-03-05T08:58:56.907Z,24.59
2023-03-05T09:01:25.305Z,24.67
2023-03-05T09:03:53.957Z,24.74
2023-03-05T09:06:22.221Z,23.87
2023-03-05T09:08:50.397Z,23.33
2023-03-05T09:11:18.490Z,22.88
2023-03-05T09:13:46.663Z,23.29
2023-03-05T09:16:17.238Z,23.88
2023-03-05T09:18:45.904Z,24.21
2023-03-05T09:21:16.581Z,23.53
2023-03-05T09:23:45.290Z,23.48
2023-03-05T09:26:16.518Z,22.93
2023-03-05T09:28:45.472Z,22.89
2023-03-05T09:31:14.154Z,23.30
2023-03-05T09:33:42.166Z,23.53
2023-03-05T09:36:25.593Z,23.96
2023-03-05T09:38:54.513Z,24.32
2023-03-05T09:41:41.192Z,24.79
2023-03-05T09:44:36.042Z,25.27
2023-03-05T09:47:23.037Z,24.77
2023-03-05T09:50:04.176Z,24.38
2023-03-05T09:52:43.408Z,24.52
2023-03-05T09:55:17.832Z,24.74
2023-03-05T09:57:51.721Z,24.54
2023-03-05T10:00:45.369Z,25.24
2023-03-05T10:03:26.066Z,25.32
2023-03-05T10:06:12.890Z,25.48
2023-03-05T10:09:02.414Z,25.99
2023-03-05T10:11:33.346Z,26.66
2023-03-05T10:14:02.560Z,27.28
2023-03-05T10:16:49.278Z,27.37
2023-03-05T10:19:29.458Z,27.27
2023-03-05T10:22:04.615Z,27.58
2023-03-05T10:24:44.127Z,27.81
2023-03-05T10:27:29.807Z,27.55
2023-03-05T10:30:07.521Z,27.84
2023-03-05T10:32:35.895Z,28.82
2023-03-05T10:35:18.232Z,28.88
2023-03-05T10:37:52.675Z,27.95
2023-03-05T10:40:23.871Z,27.80
2023-03-05T10:43:21.875Z,27.58
2023-03-05T10:45:56.363Z,26.79
2023-03-05T10:48:45.011Z,26.60
2023-03-05T10:51:52.057Z,26.52
2023-03-05T10:54:33.990Z,26.75
2023-03-05T10:57:20.994Z,27.22
2023-03-05T10:59:52.441Z,27.74
2023-03-05T11:02:23.225Z,27.73
2023-03-05T11:04:53.553Z,27.15
2023-03-05T11:07:22.901Z,27.53
2023-03-05T11:10:06.026Z,27.81
2023-03-05T11:12:38.550Z,27.65
2023-03-05T11:15:09.330Z,27.68
2023-03-05T11:17:43.444Z,27.69
2023-03-05T11:20:35.691Z,27.39
2023-03-05T11:23:24.235Z,27.46
2023-03-05T11:26:13.932Z,27.55
2023-03-05T11:28:57.781Z,27.39
2023-03-05T11:31:32.007Z,27.39
2023-03-05T11:34:03.518Z,27.98
2023-03-05T11:36:40.152Z,28.06
2023-03-05T11:39:08.168Z,27.88
2023-03-05T11:41:36.119Z,27.61
2023-03-05T11:44:13.084Z,28.00
2023-03-05T11:46:46.398Z,27.84
2023-03-05T11:49:20.937Z,27.23
2023-03-05T11:52:12.996Z,27.40
2023-03-05T11:55:03.258Z,27.58
2023-03-05T11:57:42.341Z,27.75
2023-03-05T12:00:17.838Z,27.89
2023-03-05T12:02:52.424Z,27.88
2023-03-05T12:05:21.413Z,27.90
2023-03-05T12:07:52.910Z,27.66
2023-03-05T12:10:24.648Z,27.48
2023-03-05T12:13:20.200Z,27.83
2023-03-05T12:16:07.236Z,28.59
2023-03-05T12:18:55.029Z,28.34
2023-03-05T12:21:29.285Z,28.33
2023-03-05T12:24:01.446Z,28.09
2023-03-05T12:26:59.564Z,28.60
2023-03-05T12:29:48.220Z,28.68
2023-03-05T12:32:22.329Z,28.73
2023-03-05T12:34:58.305Z,29.20
2023-03-05T12:37:26.415Z,28.50
2023-03-05T12:40:04.815Z,29.22
2023-03-05T12:42:32.835Z,28.83
2023-03-05T12:45:09.809Z,28.83
2023-03-05T12:47:40.592Z,29.22
2023-03-05T12:50:27.692Z,29.01
2023-03-05T12:53:16.062Z,29.03
2023-03-05T12:55:45.929Z,29.40
2023-03-05T12:58:42.676Z,29.06
2023-03-05T13:01:36.135Z,28.90
2023-03-05T13:04:14.598Z,28.70
2023-03-05T13:06:43.442Z,28.47
2023-03-05T13:09:27.739Z,29.28
2023-03-05T13:11:56.510Z,29.10
2023-03-05T13:14:36.589Z,29.13
2023-03-05T13:17:27.433Z,29.09
2023-03-05T13:19:56.762Z,28.91
2023-03-05T13:22:25.624Z,29.22
2023-03-05T13:25:13.567Z,29.29
2023-03-05T13:27:43.138Z,29.03
2023-03-05T13:30:29.271Z,29.22
2023-03-05T13:33:04.931Z,29.28
2023-03-05T13:35:34.102Z,29.71
2023-03-05T13:38:02.386Z,29.74
2023-03-05T13:40:32.898Z,30.45
2023-03-05T13:43:15.107Z,29.98
2023-03-05T13:45:44.879Z,29.81
2023-03-05T13:48:20.212Z,30.64
2023-03-05T13:50:58.264Z,31.58
2023-03-05T13:53:31.822Z,33.00
2023-03-05T13:56:06.733Z,33.83
2023-03-05T13:58:48.222Z,34.75
2023-03-05T14:01:44.052Z,35.00
2023-03-05T14:04:15.533Z,35.28
2023-03-05T14:06:49.030Z,35.59
2023-03-05T14:09:27.841Z,36.28
2023-03-05T14:11:57.513Z,36.88
2023-03-05T14:14:27.387Z,37.35
2023-03-05T14:16:55.812Z,37.42
2023-03-05T14:19:37.046Z,37.54
2023-03-05T14:22:06.856Z,37.46
2023-03-05T14:24:35.150Z,37.66
2023-03-05T14:27:13.461Z,37.86
2023-03-05T14:29:47.527Z,38.15
2023-03-05T14:32:35.187Z,38.53
2023-03-05T14:35:06.195Z,38.61
2023-03-05T14:37:37.855Z,38.48
2023-03-05T14:40:21.243Z,38.64
2023-03-05T14:42:58.819Z,38.41
2023-03-05T14:45:37.192Z,38.26
2023-03-05T14:48:07.684Z,38.56
2023-03-05T14:50:43.374Z,38.98
2023-03-05T14:53:20.317Z,38.62
2023-03-05T14:55:53.732Z,39.06
2023-03-05T14:58:26.316Z,39.40
2023-03-05T15:00:55.844Z,39.74
2023-03-05T15:03:25.352Z,39.81
2023-03-05T15:05:56.724Z,39.92
2023-03-05T15:08:32.490Z,39.62
2023-03-05T15:11:01.345Z,40.08
2023-03-05T15:13:29.714Z,40.12
2023-03-05T15:15:58.892Z,40.89
2023-03-05T15:18:27.300Z,40.71
2023-03-05T15:20:57.243Z,40.21
2023-03-05T15:23:25.261Z,40.34
2023-03-05T15:25:53.281Z,40.36
2023-03-05T15:28:21.411Z,40.37
2023-03-05T15:30:49.541Z,40.11
2023-03-05T15:33:18.373Z,40.60
2023-03-05T15:35:46.453Z,40.10
2023-03-05T15:38:16.183Z,40.24
2023-03-05T15:40:45.200Z,40.23
2023-03-05T15:43:13.954Z,39.72
2023-03-05T15:45:42.235Z,39.06
2023-03-05T15:48:10.762Z,39.16
2023-03-05T15:50:43.817Z,39.35
2023-03-05T15:53:16.268Z,39.42
2023-03-05T15:55:46.081Z,39.16
2023-03-05T15:58:16.816Z,39.25
2023-03-05T16:00:46.084Z,38.55
2023-03-05T16:03:14.788Z,38.16
2023-03-05T16:05:43.307Z,38.28
2023-03-05T16:08:11.523Z,38.17
2023-03-05T16:10:41.067Z,38.42
2023-03-05T16:13:17.391Z,38.24
2023-03-05T16:15:47.629Z,38.13
2023-03-05T16:18:16.919Z,38.11
2023-03-05T16:20:45.492Z,38.03
2023-03-05T16:23:14.077Z,37.90
2023-03-05T16:25:42.254Z,37.72
2023-03-05T16:28:11.037Z,38.05
2023-03-05T16:30:40.044Z,37.04
2023-03-05T16:33:08.140Z,37.17
2023-03-05T16:35:36.239Z,37.51
2023-03-05T16:38:04.658Z,37.54
2023-03-05T16:41:05.573Z,37.23
2023-03-05T16:43:26.291Z,37.74
2023-03-05T16:45:54.727Z,37.88
2023-03-05T16:48:22.951Z,38.65
2023-03-05T16:50:51.158Z,38.79
2023-03-05T16:53:20.348Z,38.93
2023-03-05T16:55:48.483Z,39.22
2023-03-05T16:58:16.519Z,39.37
2023-03-05T17:00:45.482Z,40.12
2023-03-05T17:03:13.735Z,40.11
2023-03-05T17:05:42.138Z,40.51
2023-03-05T17:08:10.388Z,40.98
2023-03-05T17:10:38.548Z,41.37
2023-03-05T17:13:06.818Z,41.39
2023-03-05T17:15:35.715Z,41.36
2023-03-05T17:18:05.753Z,42.28
2023-03-05T17:20:35.664Z,42.21
2023-03-05T17:23:04.139Z,42.40
2023-03-05T17:25:32.292Z,42.33
2023-03-05T17:28:00.450Z,42.61
2023-03-05T17:30:31.520Z,42.93
2023-03-05T17:32:59.833Z,43.04
2023-03-05T17:35:29.588Z,43.12
2023-03-05T17:37:58.349Z,43.40
2023-03-05T17:40:26.499Z,43.77
2023-03-05T17:42:54.720Z,43.80
2023-03-05T17:45:22.952Z,43.72
2023-03-05T17:47:51.689Z,43.50
2023-03-05T17:50:20.106Z,43.79
2023-03-05T17:52:48.199Z,43.65
2023-03-05T17:55:17.945Z,44.05
2023-03-05T17:57:47.703Z,43.60
2023-03-05T18:00:25.020Z,43.52
2023-03-05T18:02:54.384Z,43.68
2023-03-05T18:05:24.153Z,44.01
2023-03-05T18:07:53.648Z,44.23
2023-03-05T18:10:23.873Z,43.85
2023-03-05T18:12:53.312Z,43.25
2023-03-05T18:15:24.116Z,42.94
2023-03-05T18:17:52.895Z,42.39
2023-03-05T18:20:36.540Z,41.85
2023-03-05T18:23:06.242Z,41.27
2023-03-05T18:25:35.037Z,41.73
2023-03-05T18:28:09.174Z,41.67
2023-03-05T18:30:38.967Z,41.57
2023-03-05T18:33:09.434Z,41.48
2023-03-05T18:35:37.664Z,41.86
2023-03-05T18:38:05.953Z,41.83
2023-03-05T18:40:36.054Z,42.27
2023-03-05T18:43:04.524Z,42.65
2023-03-05T18:45:34.380Z,42.19
2023-03-05T18:48:02.537Z,41.55
2023-03-05T18:50:31.135Z,41.64
2023-03-05T18:52:59.357Z,42.69
2023-03-05T18:55:29.921Z,42.81
2023-03-05T18:57:58.293Z,42.47
2023-03-05T19:00:30.074Z,42.24
2023-03-05T19:02:58.925Z,42.52
2023-03-05T19:05:28.182Z,42.93
2023-03-05T19:07:56.623Z,42.62
2023-03-05T19:10:25.590Z,42.83
2023-03-05T19:13:35.949Z,42.09
2023-03-05T19:16:24.852Z,42.12
2023-03-05T19:19:22.683Z,42.07
2023-03-05T19:21:59.814Z,43.07
2023-03-05T19:24:30.352Z,43.27
2023-03-05T19:27:01.655Z,43.23
2023-03-05T19:29:32.970Z,42.96
2023-03-05T19:32:01.751Z,42.56
2023-03-05T19:34:30.135Z,42.24
2023-03-05T19:36:58.301Z,42.54
2023-03-05T19:39:26.570Z,43.47
2023-03-05T19:41:54.660Z,43.93
2023-03-05T19:44:23.320Z,44.45
2023-03-05T19:46:51.413Z,43.66
2023-03-05T19:49:22.555Z,43.33
2023-03-05T19:51:54.176Z,43.22
2023-03-05T19:54:23.642Z,43.53
2023-03-05T19:56:54.951Z,43.31
2023-03-05T19:59:24.471Z,42.42
2023-03-05T20:01:52.469Z,42.70
2023-03-05T20:04:23.774Z,42.49
2023-03-05T20:06:51.858Z,42.66
2023-03-05T20:09:20.117Z,42.83
2023-03-05T20:11:48.292Z,42.75
2023-03-05T20:14:16.578Z,43.02
2023-03-05T20:16:44.762Z,42.69
2023-03-05T20:19:18.497Z,42.48
2023-03-05T20:21:46.592Z,42.27
2023-03-05T20:24:16.383Z,42.63
2023-03-05T20:26:45.829Z,42.06
2023-03-05T20:29:17.747Z,41.41
2023-03-05T20:31:48.124Z,41.83
2023-03-05T20:34:17.530Z,42.29
2023-03-05T20:36:46.732Z,42.14
2023-03-05T20:39:15.502Z,41.78
2023-03-05T20:41:44.311Z,41.37
2023-03-05T20:44:13.723Z,41.74
2023-03-05T20:47:40.688Z,41.50
2023-03-05T20:50:10.392Z,41.28
2023-03-05T20:52:39.109Z,41.46
2023-03-05T20:55:08.415Z,41.66
2023-03-05T20:57:36.437Z,42.00
2023-03-05T21:00:05.896Z,41.69
2023-03-05T21:02:34.286Z,41.18
2023-03-05T21:05:02.457Z,40.95
2023-03-05T21:07:31.146Z,40.50
2023-03-05T21:09:59.534Z,40.55
2023-03-05T21:12:27.594Z,40.59
2023-03-05T21:14:55.769Z,40.54
2023-03-05T21:17:23.924Z,40.06
2023-03-05T21:19:53.582Z,40.14
2023-03-05T21:22:21.847Z,40.21
2023-03-05T21:25:23.129Z,40.36
2023-03-05T21:27:56.089Z,40.76
2023-03-05T21:30:31.419Z,40.55
2023-03-05T21:33:04.996Z,41.02
2023-03-05T21:35:34.146Z,40.93
2023-03-05T21:38:03.626Z,40.54
2023-03-05T21:40:33.051Z,41.02
2023-03-05T21:43:01.430Z,41.43
2023-03-05T21:45:30.720Z,41.05
2023-03-05T21:47:59.898Z,40.50
2023-03-05T21:50:28.072Z,40.41
2023-03-05T21:52:56.315Z,39.84
2023-03-05T21:56:10.465Z,39.86
2023-03-05T21:58:49.174Z,39.94
2023-03-05T22:01:19.518Z,39.06
2023-03-05T22:03:48.929Z,38.93
2023-03-05T22:06:18.200Z,39.23
2023-03-05T22:08:47.227Z,39.59
2023-03-05T22:11:18.743Z,39.39
2023-03-05T22:13:47.220Z,39.08
2023-03-05T22:16:26.694Z,38.62
2023-03-05T22:18:54.943Z,38.04
2023-03-05T22:21:27.061Z,38.52
2023-03-05T22:23:59.160Z,38.04
2023-03-05T22:26:37.356Z,38.22
2023-03-05T22:29:06.314Z,38.21
2023-03-05T22:31:34.832Z,38.53
2023-03-05T22:34:03.263Z,39.06
2023-03-05T22:36:31.681Z,39.44
2023-03-05T22:38:59.754Z,40.25
2023-03-05T22:41:27.822Z,39.82
2023-03-05T22:43:55.958Z,39.70
2023-03-05T22:46:26.288Z,39.65
2023-03-05T22:48:54.455Z,40.56
2023-03-05T22:51:22.693Z,40.45
2023-03-05T22:53:51.069Z,39.94
2023-03-05T22:56:20.689Z,39.80
2023-03-05T22:58:48.830Z,40.00
2023-03-05T23:01:20.054Z,39.93
2023-03-05T23:04:38.952Z,40.59
2023-03-05T23:07:08.981Z,40.42
2023-03-05T23:09:37.271Z,40.85
2023-03-05T23:12:06.029Z,41.27
2023-03-05T23:14:34.101Z,41.04
2023-03-05T23:17:02.457Z,40.98
2023-03-05T23:19:30.787Z,41.39
2023-03-05T23:21:58.857Z,41.35
2023-03-05T23:24:26.994Z,41.48
2023-03-05T23:26:55.228Z,41.04
2023-03-05T23:29:59.002Z,40.68
2023-03-05T23:32:29.558Z,40.63
2023-03-05T23:34:57.626Z,40.36
2023-03-05T23:37:26.029Z,40.32
2023-03-05T23:39:54.334Z,40.18
2023-03-05T23:42:22.502Z,39.24
2023-03-05T23:44:50.637Z,38.74
2023-03-05T23:47:18.843Z,38.83
2023-03-05T23:49:47.000Z,39.88
2023-03-05T23:52:15.488Z,39.74
2023-03-05T23:54:43.614Z,39.09
2023-03-05T23:57:11.840Z,38.76
2023-03-05T23:59:39.888Z,39.39
